This is the latest recevied weather packets stored in our database for station/object WP3OF-2. If no packets are shown the sender has not sent any weather packets the latest 10 day(s).
| Time | Temp. | Humidity | Pressure | Rain* | Wind** | Luminosity | Snow |
|---|---|---|---|---|---|---|---|
| 1778174902 | 25° C | 87% | 1026.3 hPa | 0 mm | - | 227 W/m² | - |
| 1778174599 | 24.44° C | 85% | 1026.3 hPa | 0 mm | - | 320 W/m² | - |
| 1778174295 | 24.44° C | 86% | 1026.7 hPa | 0 mm | - | 1063 W/m² | - |
| 1778173992 | 23.89° C | 86% | 1026.7 hPa | 0 mm | - | 983 W/m² | - |
| 1778173689 | 23.33° C | 87% | 1026.7 hPa | 0 mm | - | 297 W/m² | - |
| 1778173386 | 23.89° C | 87% | 1026.7 hPa | 0 mm | - | 232 W/m² | - |
| 1778173081 | 25° C | 82% | 1026.7 hPa | 0 mm | - | 432 W/m² | - |
| 1778172778 | 25° C | 83% | 1026.7 hPa | 0 mm | - | 964 W/m² | - |
| 1778172474 | 24.44° C | 83% | 1027.1 hPa | 0 mm | - | 968 W/m² | - |
| 1778172171 | 23.89° C | 86% | 1027.1 hPa | 0 mm | - | 891 W/m² | - |
| 1778171868 | 23.33° C | 86% | 1027.1 hPa | 0 mm | - | 203 W/m² | - |
| 1778171566 | 23.33° C | 86% | 1027.1 hPa | 0 mm | - | 226 W/m² | - |
| 1778171262 | 23.33° C | 86% | 1027.4 hPa | 0 mm | - | 176 W/m² | - |
| 1778170958 | 23.89° C | 87% | 1027.4 hPa | 0 mm | - | 176 W/m² | - |
| 1778170655 | 23.89° C | 86% | 1027.4 hPa | 0 mm | - | 163 W/m² | - |
| 1778170351 | 23.89° C | 86% | 1027.4 hPa | 0 mm | - | 162 W/m² | - |
| 1778170047 | 23.89° C | 84% | 1027.4 hPa | 0 mm | - | 161 W/m² | - |
| 1778169744 | 24.44° C | 84% | 1027.9 hPa | 0 mm | - | 265 W/m² | - |
| 1778169440 | 24.44° C | 84% | 1027.4 hPa | 0 mm | - | 873 W/m² | - |
| 1778169136 | 24.44° C | 84% | 1027.4 hPa | 0 mm | - | 927 W/m² | - |
| 1778168833 | 23.89° C | 85% | 1027.9 hPa | 0 mm | - | 267 W/m² | - |
| 1778168530 | 23.33° C | 86% | 1027.9 hPa | 0 mm | - | 627 W/m² | - |
| 1778168226 | 23.89° C | 84% | 1027.4 hPa | 0 mm | - | 844 W/m² | - |
| 1778167923 | 23.33° C | 88% | 1027.9 hPa | 0 mm | - | 465 W/m² | - |
| 1778167619 | 23.89° C | 84% | 1027.9 hPa | 0 mm | - | 226 W/m² | - |
* Rain latest hour (hover to see other rain measurements)
** Current wind speed in m/s (hover to see current wind gust speed)